sensor_id;sensor_type;location;lat;lon;timestamp;temperature;humidity
5364;DHT22;2705;41.410;2.160;2023-03-08T00:00:13;13.90;99.90
5364;DHT22;2705;41.410;2.160;2023-03-08T00:02:43;13.80;99.90
5364;DHT22;2705;41.410;2.160;2023-03-08T00:05:12;13.90;99.90
5364;DHT22;2705;41.410;2.160;2023-03-08T00:07:41;13.80;99.90
5364;DHT22;2705;41.410;2.160;2023-03-08T00:10:11;13.90;99.90
5364;DHT22;2705;41.410;2.160;2023-03-08T00:12:42;14.00;99.90
5364;DHT22;2705;41.410;2.160;2023-03-08T00:15:11;13.90;99.90
5364;DHT22;2705;41.410;2.160;2023-03-08T00:17:41;13.90;99.90
5364;DHT22;2705;41.410;2.160;2023-03-08T00:20:12;13.80;99.90
5364;DHT22;2705;41.410;2.160;2023-03-08T00:22:42;13.80;99.90
5364;DHT22;2705;41.410;2.160;2023-03-08T00:25:11;13.70;99.90
5364;DHT22;2705;41.410;2.160;2023-03-08T00:27:44;13.70;99.90
5364;DHT22;2705;41.410;2.160;2023-03-08T00:30:16;13.60;99.90
5364;DHT22;2705;41.410;2.160;2023-03-08T00:32:46;13.70;99.90
5364;DHT22;2705;41.410;2.160;2023-03-08T00:35:16;13.80;99.90
5364;DHT22;2705;41.410;2.160;2023-03-08T00:37:46;13.90;99.90
5364;DHT22;2705;41.410;2.160;2023-03-08T00:40:16;13.90;99.90
5364;DHT22;2705;41.410;2.160;2023-03-08T00:42:47;13.80;99.90
5364;DHT22;2705;41.410;2.160;2023-03-08T00:45:16;13.70;99.90
5364;DHT22;2705;41.410;2.160;2023-03-08T00:47:45;13.80;99.90
5364;DHT22;2705;41.410;2.160;2023-03-08T00:50:15;13.80;99.90
5364;DHT22;2705;41.410;2.160;2023-03-08T00:52:44;13.80;99.90
5364;DHT22;2705;41.410;2.160;2023-03-08T00:55:13;13.70;99.90
5364;DHT22;2705;41.410;2.160;2023-03-08T00:57:42;13.40;99.90
5364;DHT22;2705;41.410;2.160;2023-03-08T01:00:14;13.40;99.90
5364;DHT22;2705;41.410;2.160;2023-03-08T01:02:43;13.50;99.90
5364;DHT22;2705;41.410;2.160;2023-03-08T01:05:13;13.60;99.90
5364;DHT22;2705;41.410;2.160;2023-03-08T01:07:43;13.80;99.90
5364;DHT22;2705;41.410;2.160;2023-03-08T01:10:12;13.80;99.90
5364;DHT22;2705;41.410;2.160;2023-03-08T01:12:41;13.70;99.90
5364;DHT22;2705;41.410;2.160;2023-03-08T01:15:13;13.90;99.90
5364;DHT22;2705;41.410;2.160;2023-03-08T01:17:42;14.00;99.90
5364;DHT22;2705;41.410;2.160;2023-03-08T01:20:12;13.80;99.90
5364;DHT22;2705;41.410;2.160;2023-03-08T01:22:41;13.60;99.90
5364;DHT22;2705;41.410;2.160;2023-03-08T01:25:10;13.50;99.90
5364;DHT22;2705;41.410;2.160;2023-03-08T01:27:58;13.40;99.90
5364;DHT22;2705;41.410;2.160;2023-03-08T01:30:29;13.40;99.90
5364;DHT22;2705;41.410;2.160;2023-03-08T01:32:59;13.30;99.90
5364;DHT22;2705;41.410;2.160;2023-03-08T01:35:28;13.30;99.90
5364;DHT22;2705;41.410;2.160;2023-03-08T01:37:57;13.70;99.90
5364;DHT22;2705;41.410;2.160;2023-03-08T01:40:26;13.70;99.90
5364;DHT22;2705;41.410;2.160;2023-03-08T01:42:56;13.60;99.90
5364;DHT22;2705;41.410;2.160;2023-03-08T01:48:36;13.50;99.90
5364;DHT22;2705;41.410;2.160;2023-03-08T01:51:12;13.70;99.90
5364;DHT22;2705;41.410;2.160;2023-03-08T01:53:43;13.80;99.90
5364;DHT22;2705;41.410;2.160;2023-03-08T01:56:14;13.70;99.90
5364;DHT22;2705;41.410;2.160;2023-03-08T01:58:48;13.70;99.90
5364;DHT22;2705;41.410;2.160;2023-03-08T02:01:18;13.70;99.90
5364;DHT22;2705;41.410;2.160;2023-03-08T02:03:51;13.60;99.90
5364;DHT22;2705;41.410;2.160;2023-03-08T02:06:20;13.70;99.90
5364;DHT22;2705;41.410;2.160;2023-03-08T02:08:50;13.70;99.90
5364;DHT22;2705;41.410;2.160;2023-03-08T02:11:20;13.60;99.90
5364;DHT22;2705;41.410;2.160;2023-03-08T02:13:52;13.70;99.90
5364;DHT22;2705;41.410;2.160;2023-03-08T02:16:22;13.70;99.90
5364;DHT22;2705;41.410;2.160;2023-03-08T02:18:55;13.80;99.90
5364;DHT22;2705;41.410;2.160;2023-03-08T02:21:25;13.90;99.90
5364;DHT22;2705;41.410;2.160;2023-03-08T02:24:03;13.60;99.90
5364;DHT22;2705;41.410;2.160;2023-03-08T02:26:33;13.40;99.90
5364;DHT22;2705;41.410;2.160;2023-03-08T02:29:05;13.20;99.90
5364;DHT22;2705;41.410;2.160;2023-03-08T02:31:34;13.10;99.90
5364;DHT22;2705;41.410;2.160;2023-03-08T02:34:03;13.00;99.90
5364;DHT22;2705;41.410;2.160;2023-03-08T02:36:33;13.10;99.90
5364;DHT22;2705;41.410;2.160;2023-03-08T02:39:03;13.10;99.90
5364;DHT22;2705;41.410;2.160;2023-03-08T02:41:33;13.20;99.90
5364;DHT22;2705;41.410;2.160;2023-03-08T02:44:02;13.30;99.90
5364;DHT22;2705;41.410;2.160;2023-03-08T02:46:31;13.40;99.90
5364;DHT22;2705;41.410;2.160;2023-03-08T02:49:02;13.50;99.90
5364;DHT22;2705;41.410;2.160;2023-03-08T02:51:31;13.70;99.90
5364;DHT22;2705;41.410;2.160;2023-03-08T02:54:00;14.00;99.90
5364;DHT22;2705;41.410;2.160;2023-03-08T02:56:31;14.20;99.90
5364;DHT22;2705;41.410;2.160;2023-03-08T02:59:00;14.40;99.90
5364;DHT22;2705;41.410;2.160;2023-03-08T03:01:29;14.40;99.90
5364;DHT22;2705;41.410;2.160;2023-03-08T03:03:59;14.40;99.90
5364;DHT22;2705;41.410;2.160;2023-03-08T03:06:28;14.40;99.90
5364;DHT22;2705;41.410;2.160;2023-03-08T03:08:57;14.20;99.90
5364;DHT22;2705;41.410;2.160;2023-03-08T03:11:27;13.90;99.90
5364;DHT22;2705;41.410;2.160;2023-03-08T03:13:59;13.70;99.90
5364;DHT22;2705;41.410;2.160;2023-03-08T03:16:33;13.60;99.90
5364;DHT22;2705;41.410;2.160;2023-03-08T03:19:04;13.50;99.90
5364;DHT22;2705;41.410;2.160;2023-03-08T03:21:33;13.40;99.90
5364;DHT22;2705;41.410;2.160;2023-03-08T03:24:02;13.40;99.90
5364;DHT22;2705;41.410;2.160;2023-03-08T03:26:46;13.30;99.90
5364;DHT22;2705;41.410;2.160;2023-03-08T03:29:20;13.30;99.90
5364;DHT22;2705;41.410;2.160;2023-03-08T03:31:55;13.20;99.90
5364;DHT22;2705;41.410;2.160;2023-03-08T03:34:25;13.30;99.90
5364;DHT22;2705;41.410;2.160;2023-03-08T03:36:54;13.30;99.90
5364;DHT22;2705;41.410;2.160;2023-03-08T03:39:23;13.40;99.90
5364;DHT22;2705;41.410;2.160;2023-03-08T03:41:53;13.40;99.90
5364;DHT22;2705;41.410;2.160;2023-03-08T03:44:23;13.40;99.90
5364;DHT22;2705;41.410;2.160;2023-03-08T03:46:53;13.40;99.90
5364;DHT22;2705;41.410;2.160;2023-03-08T03:49:25;13.40;99.90
5364;DHT22;2705;41.410;2.160;2023-03-08T03:51:54;13.50;99.90
5364;DHT22;2705;41.410;2.160;2023-03-08T03:54:34;13.40;99.90
5364;DHT22;2705;41.410;2.160;2023-03-08T03:57:03;13.40;99.90
5364;DHT22;2705;41.410;2.160;2023-03-08T03:59:37;13.50;99.90
5364;DHT22;2705;41.410;2.160;2023-03-08T04:02:07;13.40;99.90
5364;DHT22;2705;41.410;2.160;2023-03-08T04:04:48;13.30;99.90
5364;DHT22;2705;41.410;2.160;2023-03-08T04:07:21;13.30;99.90
5364;DHT22;2705;41.410;2.160;2023-03-08T04:09:56;13.40;99.90
5364;DHT22;2705;41.410;2.160;2023-03-08T04:12:25;13.50;99.90
5364;DHT22;2705;41.410;2.160;2023-03-08T04:14:57;13.70;99.90
5364;DHT22;2705;41.410;2.160;2023-03-08T04:17:30;13.80;99.90
5364;DHT22;2705;41.410;2.160;2023-03-08T04:19:59;14.10;99.90
5364;DHT22;2705;41.410;2.160;2023-03-08T04:22:32;14.10;99.90
5364;DHT22;2705;41.410;2.160;2023-03-08T04:25:10;14.20;99.90
5364;DHT22;2705;41.410;2.160;2023-03-08T04:27:46;14.10;99.90
5364;DHT22;2705;41.410;2.160;2023-03-08T04:30:17;14.10;99.90
5364;DHT22;2705;41.410;2.160;2023-03-08T04:32:46;14.10;99.90
5364;DHT22;2705;41.410;2.160;2023-03-08T04:35:16;14.20;99.90
5364;DHT22;2705;41.410;2.160;2023-03-08T04:37:48;14.30;99.90
5364;DHT22;2705;41.410;2.160;2023-03-08T04:40:20;14.50;99.90
5364;DHT22;2705;41.410;2.160;2023-03-08T04:42:55;14.60;99.90
5364;DHT22;2705;41.410;2.160;2023-03-08T04:45:39;14.80;99.90
5364;DHT22;2705;41.410;2.160;2023-03-08T04:48:11;14.80;99.90
5364;DHT22;2705;41.410;2.160;2023-03-08T04:50:40;14.90;99.90
5364;DHT22;2705;41.410;2.160;2023-03-08T04:53:10;15.00;99.90
5364;DHT22;2705;41.410;2.160;2023-03-08T04:55:40;15.00;99.90
5364;DHT22;2705;41.410;2.160;2023-03-08T04:58:09;15.00;99.90
5364;DHT22;2705;41.410;2.160;2023-03-08T05:00:40;15.10;99.90
5364;DHT22;2705;41.410;2.160;2023-03-08T05:03:09;15.10;99.90
5364;DHT22;2705;41.410;2.160;2023-03-08T05:05:44;15.00;99.90
5364;DHT22;2705;41.410;2.160;2023-03-08T05:08:15;14.80;99.90
5364;DHT22;2705;41.410;2.160;2023-03-08T05:10:47;14.70;99.90
5364;DHT22;2705;41.410;2.160;2023-03-08T05:13:17;14.60;99.90
5364;DHT22;2705;41.410;2.160;2023-03-08T05:15:47;14.70;99.90
5364;DHT22;2705;41.410;2.160;2023-03-08T05:18:18;14.90;99.90
5364;DHT22;2705;41.410;2.160;2023-03-08T05:20:53;14.80;99.90
5364;DHT22;2705;41.410;2.160;2023-03-08T05:23:25;14.70;99.90
5364;DHT22;2705;41.410;2.160;2023-03-08T05:25:58;14.30;99.90
5364;DHT22;2705;41.410;2.160;2023-03-08T05:28:30;14.00;99.90
5364;DHT22;2705;41.410;2.160;2023-03-08T05:31:02;13.90;99.90
5364;DHT22;2705;41.410;2.160;2023-03-08T05:33:35;14.00;99.90
5364;DHT22;2705;41.410;2.160;2023-03-08T05:36:06;14.00;99.90
5364;DHT22;2705;41.410;2.160;2023-03-08T05:38:36;14.00;99.90
5364;DHT22;2705;41.410;2.160;2023-03-08T05:41:10;14.00;99.90
5364;DHT22;2705;41.410;2.160;2023-03-08T05:43:41;14.10;99.90
5364;DHT22;2705;41.410;2.160;2023-03-08T05:46:14;14.00;99.90
5364;DHT22;2705;41.410;2.160;2023-03-08T05:48:44;14.00;99.90
5364;DHT22;2705;41.410;2.160;2023-03-08T05:51:16;14.00;99.90
5364;DHT22;2705;41.410;2.160;2023-03-08T05:53:47;14.10;99.90
5364;DHT22;2705;41.410;2.160;2023-03-08T05:56:20;14.00;99.90
5364;DHT22;2705;41.410;2.160;2023-03-08T05:58:57;14.20;99.90
5364;DHT22;2705;41.410;2.160;2023-03-08T06:01:30;14.20;99.90
5364;DHT22;2705;41.410;2.160;2023-03-08T06:04:08;14.30;99.90
5364;DHT22;2705;41.410;2.160;2023-03-08T06:06:40;14.30;99.90
5364;DHT22;2705;41.410;2.160;2023-03-08T06:09:09;14.30;99.90
5364;DHT22;2705;41.410;2.160;2023-03-08T06:11:41;14.40;99.90
5364;DHT22;2705;41.410;2.160;2023-03-08T06:14:10;14.60;99.90
5364;DHT22;2705;41.410;2.160;2023-03-08T06:16:42;14.30;99.90
5364;DHT22;2705;41.410;2.160;2023-03-08T06:19:16;14.40;99.90
5364;DHT22;2705;41.410;2.160;2023-03-08T06:21:47;14.40;99.90
5364;DHT22;2705;41.410;2.160;2023-03-08T06:24:17;14.30;99.90
5364;DHT22;2705;41.410;2.160;2023-03-08T06:26:46;14.40;99.90
5364;DHT22;2705;41.410;2.160;2023-03-08T06:29:16;14.40;99.90
5364;DHT22;2705;41.410;2.160;2023-03-08T06:31:47;14.40;99.90
5364;DHT22;2705;41.410;2.160;2023-03-08T06:34:17;14.50;99.90
5364;DHT22;2705;41.410;2.160;2023-03-08T06:36:49;14.50;99.90
5364;DHT22;2705;41.410;2.160;2023-03-08T06:39:23;14.60;99.90
5364;DHT22;2705;41.410;2.160;2023-03-08T06:41:52;14.70;99.90
5364;DHT22;2705;41.410;2.160;2023-03-08T06:44:21;14.80;99.90
5364;DHT22;2705;41.410;2.160;2023-03-08T06:46:52;14.80;99.90
5364;DHT22;2705;41.410;2.160;2023-03-08T06:49:21;14.80;99.90
5364;DHT22;2705;41.410;2.160;2023-03-08T06:51:51;14.70;99.90
5364;DHT22;2705;41.410;2.160;2023-03-08T06:54:23;14.70;99.90
5364;DHT22;2705;41.410;2.160;2023-03-08T06:56:52;14.80;99.90
5364;DHT22;2705;41.410;2.160;2023-03-08T06:59:22;14.70;99.90
5364;DHT22;2705;41.410;2.160;2023-03-08T07:01:53;14.80;99.90
5364;DHT22;2705;41.410;2.160;2023-03-08T07:04:23;14.90;99.90
5364;DHT22;2705;41.410;2.160;2023-03-08T07:06:52;15.00;99.90
5364;DHT22;2705;41.410;2.160;2023-03-08T07:09:21;15.00;99.90
5364;DHT22;2705;41.410;2.160;2023-03-08T07:11:50;15.00;99.90
5364;DHT22;2705;41.410;2.160;2023-03-08T07:14:20;15.10;99.90
5364;DHT22;2705;41.410;2.160;2023-03-08T07:16:49;15.20;99.90
5364;DHT22;2705;41.410;2.160;2023-03-08T07:19:20;15.30;99.90
5364;DHT22;2705;41.410;2.160;2023-03-08T07:21:49;15.40;99.90
5364;DHT22;2705;41.410;2.160;2023-03-08T07:24:19;15.50;99.90
5364;DHT22;2705;41.410;2.160;2023-03-08T07:26:49;15.50;99.90
5364;DHT22;2705;41.410;2.160;2023-03-08T07:29:18;15.50;99.90
5364;DHT22;2705;41.410;2.160;2023-03-08T07:31:47;15.50;99.90
5364;DHT22;2705;41.410;2.160;2023-03-08T07:34:16;15.60;99.90
5364;DHT22;2705;41.410;2.160;2023-03-08T07:36:47;15.70;99.90
5364;DHT22;2705;41.410;2.160;2023-03-08T07:39:16;15.60;99.90
5364;DHT22;2705;41.410;2.160;2023-03-08T07:41:45;15.60;99.90
5364;DHT22;2705;41.410;2.160;2023-03-08T07:44:15;15.70;99.90
5364;DHT22;2705;41.410;2.160;2023-03-08T07:46:45;15.80;99.90
5364;DHT22;2705;41.410;2.160;2023-03-08T07:49:14;15.80;99.90
5364;DHT22;2705;41.410;2.160;2023-03-08T07:51:43;15.90;99.90
5364;DHT22;2705;41.410;2.160;2023-03-08T07:54:14;16.00;99.90
5364;DHT22;2705;41.410;2.160;2023-03-08T07:56:43;16.00;99.90
5364;DHT22;2705;41.410;2.160;2023-03-08T07:59:12;16.00;99.90
5364;DHT22;2705;41.410;2.160;2023-03-08T08:01:42;16.10;99.90
5364;DHT22;2705;41.410;2.160;2023-03-08T08:04:11;16.10;99.90
5364;DHT22;2705;41.410;2.160;2023-03-08T08:06:40;16.20;99.90
5364;DHT22;2705;41.410;2.160;2023-03-08T08:09:12;16.20;99.90
5364;DHT22;2705;41.410;2.160;2023-03-08T08:11:43;16.30;99.90
5364;DHT22;2705;41.410;2.160;2023-03-08T08:14:12;16.30;99.90
5364;DHT22;2705;41.410;2.160;2023-03-08T08:16:41;16.40;99.90
5364;DHT22;2705;41.410;2.160;2023-03-08T08:19:11;16.40;99.90
5364;DHT22;2705;41.410;2.160;2023-03-08T08:21:41;16.90;99.90
5364;DHT22;2705;41.410;2.160;2023-03-08T08:24:10;16.80;99.90
5364;DHT22;2705;41.410;2.160;2023-03-08T08:26:39;16.40;99.90
5364;DHT22;2705;41.410;2.160;2023-03-08T08:29:10;16.10;99.90
5364;DHT22;2705;41.410;2.160;2023-03-08T08:31:40;15.80;99.90
5364;DHT22;2705;41.410;2.160;2023-03-08T08:34:09;16.00;99.90
5364;DHT22;2705;41.410;2.160;2023-03-08T08:36:38;15.90;99.90
5364;DHT22;2705;41.410;2.160;2023-03-08T08:39:08;15.90;99.90
5364;DHT22;2705;41.410;2.160;2023-03-08T08:41:37;15.80;99.90
5364;DHT22;2705;41.410;2.160;2023-03-08T08:44:06;16.00;99.90
5364;DHT22;2705;41.410;2.160;2023-03-08T08:46:37;16.10;99.90
5364;DHT22;2705;41.410;2.160;2023-03-08T08:49:09;16.10;99.90
5364;DHT22;2705;41.410;2.160;2023-03-08T08:51:38;16.20;99.90
5364;DHT22;2705;41.410;2.160;2023-03-08T08:54:07;16.20;99.90
5364;DHT22;2705;41.410;2.160;2023-03-08T08:56:37;16.30;99.90
5364;DHT22;2705;41.410;2.160;2023-03-08T08:59:10;16.40;99.90
5364;DHT22;2705;41.410;2.160;2023-03-08T09:01:43;16.40;99.90
5364;DHT22;2705;41.410;2.160;2023-03-08T09:04:12;16.60;99.90
5364;DHT22;2705;41.410;2.160;2023-03-08T09:06:43;16.60;99.90
5364;DHT22;2705;41.410;2.160;2023-03-08T09:09:13;16.70;99.90
5364;DHT22;2705;41.410;2.160;2023-03-08T09:11:43;16.80;99.90
5364;DHT22;2705;41.410;2.160;2023-03-08T09:14:22;16.70;99.90
5364;DHT22;2705;41.410;2.160;2023-03-08T09:16:54;16.80;99.90
5364;DHT22;2705;41.410;2.160;2023-03-08T09:19:23;16.80;99.90
5364;DHT22;2705;41.410;2.160;2023-03-08T09:21:52;16.90;99.90
5364;DHT22;2705;41.410;2.160;2023-03-08T09:24:21;17.00;99.90
5364;DHT22;2705;41.410;2.160;2023-03-08T09:26:50;17.30;99.90
5364;DHT22;2705;41.410;2.160;2023-03-08T09:29:19;17.40;99.90
5364;DHT22;2705;41.410;2.160;2023-03-08T09:31:49;17.50;99.90
5364;DHT22;2705;41.410;2.160;2023-03-08T09:34:20;17.50;99.90
5364;DHT22;2705;41.410;2.160;2023-03-08T09:36:49;17.60;99.90
5364;DHT22;2705;41.410;2.160;2023-03-08T09:39:18;17.60;99.90
5364;DHT22;2705;41.410;2.160;2023-03-08T09:41:53;17.70;99.90
5364;DHT22;2705;41.410;2.160;2023-03-08T09:44:50;17.70;99.90
5364;DHT22;2705;41.410;2.160;2023-03-08T09:47:30;17.70;99.90
5364;DHT22;2705;41.410;2.160;2023-03-08T09:50:08;17.80;99.90
5364;DHT22;2705;41.410;2.160;2023-03-08T09:52:45;17.90;99.90
5364;DHT22;2705;41.410;2.160;2023-03-08T09:55:19;18.00;99.90
5364;DHT22;2705;41.410;2.160;2023-03-08T09:57:58;18.10;99.90
5364;DHT22;2705;41.410;2.160;2023-03-08T10:00:31;18.30;99.90
5364;DHT22;2705;41.410;2.160;2023-03-08T10:03:26;18.40;99.90
5364;DHT22;2705;41.410;2.160;2023-03-08T10:06:04;18.50;99.90
5364;DHT22;2705;41.410;2.160;2023-03-08T10:08:42;18.60;99.90
5364;DHT22;2705;41.410;2.160;2023-03-08T10:11:18;18.60;99.90
5364;DHT22;2705;41.410;2.160;2023-03-08T10:13:51;18.70;99.90
5364;DHT22;2705;41.410;2.160;2023-03-08T10:16:24;18.70;99.90
5364;DHT22;2705;41.410;2.160;2023-03-08T10:18:57;18.80;99.90
5364;DHT22;2705;41.410;2.160;2023-03-08T10:21:30;18.80;99.90
5364;DHT22;2705;41.410;2.160;2023-03-08T10:24:08;18.90;99.90
5364;DHT22;2705;41.410;2.160;2023-03-08T10:26:42;19.00;99.90
5364;DHT22;2705;41.410;2.160;2023-03-08T10:29:12;19.10;99.90
5364;DHT22;2705;41.410;2.160;2023-03-08T10:31:43;19.20;99.90
5364;DHT22;2705;41.410;2.160;2023-03-08T10:34:16;19.40;99.90
5364;DHT22;2705;41.410;2.160;2023-03-08T10:36:49;19.50;99.90
5364;DHT22;2705;41.410;2.160;2023-03-08T10:39:19;19.50;99.90
5364;DHT22;2705;41.410;2.160;2023-03-08T10:41:51;19.70;99.90
5364;DHT22;2705;41.410;2.160;2023-03-08T10:44:31;19.80;99.90
5364;DHT22;2705;41.410;2.160;2023-03-08T10:47:17;20.00;99.90
5364;DHT22;2705;41.410;2.160;2023-03-08T10:49:46;20.10;99.90
5364;DHT22;2705;41.410;2.160;2023-03-08T10:52:26;20.00;99.90
5364;DHT22;2705;41.410;2.160;2023-03-08T10:55:03;19.90;99.90
5364;DHT22;2705;41.410;2.160;2023-03-08T10:57:33;20.00;99.90
5364;DHT22;2705;41.410;2.160;2023-03-08T11:00:05;20.00;99.90
5364;DHT22;2705;41.410;2.160;2023-03-08T11:02:40;20.10;99.90
5364;DHT22;2705;41.410;2.160;2023-03-08T11:05:18;20.20;99.90
5364;DHT22;2705;41.410;2.160;2023-03-08T11:07:53;20.20;99.90
5364;DHT22;2705;41.410;2.160;2023-03-08T11:10:25;20.40;99.90
5364;DHT22;2705;41.410;2.160;2023-03-08T11:13:02;20.40;99.90
5364;DHT22;2705;41.410;2.160;2023-03-08T11:15:36;20.50;99.90
5364;DHT22;2705;41.410;2.160;2023-03-08T11:18:15;20.50;99.90
5364;DHT22;2705;41.410;2.160;2023-03-08T11:20:50;20.50;99.90
5364;DHT22;2705;41.410;2.160;2023-03-08T11:23:25;20.60;99.90
5364;DHT22;2705;41.410;2.160;2023-03-08T11:26:01;20.80;99.90
5364;DHT22;2705;41.410;2.160;2023-03-08T11:28:42;20.70;99.90
5364;DHT22;2705;41.410;2.160;2023-03-08T11:31:21;20.90;99.90
5364;DHT22;2705;41.410;2.160;2023-03-08T11:34:16;21.00;99.90
5364;DHT22;2705;41.410;2.160;2023-03-08T11:36:53;21.00;99.90
5364;DHT22;2705;41.410;2.160;2023-03-08T11:39:29;21.00;99.90
5364;DHT22;2705;41.410;2.160;2023-03-08T11:42:07;21.00;99.90
5364;DHT22;2705;41.410;2.160;2023-03-08T11:45:00;21.10;99.90
5364;DHT22;2705;41.410;2.160;2023-03-08T11:50:28;21.00;99.90
5364;DHT22;2705;41.410;2.160;2023-03-08T11:53:05;21.00;99.90
5364;DHT22;2705;41.410;2.160;2023-03-08T11:55:49;21.10;99.90
5364;DHT22;2705;41.410;2.160;2023-03-08T11:58:27;21.20;99.90
5364;DHT22;2705;41.410;2.160;2023-03-08T12:01:25;21.20;99.90
5364;DHT22;2705;41.410;2.160;2023-03-08T12:03:57;21.40;99.90
5364;DHT22;2705;41.410;2.160;2023-03-08T12:06:34;21.50;99.90
5364;DHT22;2705;41.410;2.160;2023-03-08T12:09:11;21.70;99.90
5364;DHT22;2705;41.410;2.160;2023-03-08T12:11:48;21.70;99.90
5364;DHT22;2705;41.410;2.160;2023-03-08T12:14:22;21.70;99.90
5364;DHT22;2705;41.410;2.160;2023-03-08T12:16:58;21.60;99.90
5364;DHT22;2705;41.410;2.160;2023-03-08T12:19:38;21.50;99.90
5364;DHT22;2705;41.410;2.160;2023-03-08T12:22:22;21.50;99.90
5364;DHT22;2705;41.410;2.160;2023-03-08T12:24:57;21.50;99.90
5364;DHT22;2705;41.410;2.160;2023-03-08T12:27:33;21.60;99.90
5364;DHT22;2705;41.410;2.160;2023-03-08T12:30:11;21.70;99.90
5364;DHT22;2705;41.410;2.160;2023-03-08T12:32:41;21.70;99.90
5364;DHT22;2705;41.410;2.160;2023-03-08T12:35:25;21.70;99.90
5364;DHT22;2705;41.410;2.160;2023-03-08T12:37:56;21.80;99.90
5364;DHT22;2705;41.410;2.160;2023-03-08T12:40:30;21.80;99.90
5364;DHT22;2705;41.410;2.160;2023-03-08T12:43:06;22.00;99.90
5364;DHT22;2705;41.410;2.160;2023-03-08T12:45:37;22.00;99.90
5364;DHT22;2705;41.410;2.160;2023-03-08T12:48:19;21.90;99.90
5364;DHT22;2705;41.410;2.160;2023-03-08T12:50:57;21.90;99.90
5364;DHT22;2705;41.410;2.160;2023-03-08T12:53:37;22.00;99.90
5364;DHT22;2705;41.410;2.160;2023-03-08T12:56:22;22.20;99.90
5364;DHT22;2705;41.410;2.160;2023-03-08T12:58:56;22.10;99.90
5364;DHT22;2705;41.410;2.160;2023-03-08T13:01:34;22.00;99.90
5364;DHT22;2705;41.410;2.160;2023-03-08T13:04:05;22.10;99.90
5364;DHT22;2705;41.410;2.160;2023-03-08T13:09:51;22.30;99.90
5364;DHT22;2705;41.410;2.160;2023-03-08T13:12:31;22.50;99.90
5364;DHT22;2705;41.410;2.160;2023-03-08T13:15:19;22.50;99.90
5364;DHT22;2705;41.410;2.160;2023-03-08T13:17:52;22.30;99.90
5364;DHT22;2705;41.410;2.160;2023-03-08T13:20:33;22.40;99.90
5364;DHT22;2705;41.410;2.160;2023-03-08T13:23:21;22.40;99.90
5364;DHT22;2705;41.410;2.160;2023-03-08T13:26:14;22.60;99.90
5364;DHT22;2705;41.410;2.160;2023-03-08T13:28:46;22.70;99.90
5364;DHT22;2705;41.410;2.160;2023-03-08T13:31:19;22.80;99.90
5364;DHT22;2705;41.410;2.160;2023-03-08T13:33:50;22.70;99.90
5364;DHT22;2705;41.410;2.160;2023-03-08T13:36:23;22.70;99.90
5364;DHT22;2705;41.410;2.160;2023-03-08T13:39:17;22.80;99.90
5364;DHT22;2705;41.410;2.160;2023-03-08T13:41:47;22.90;99.90
5364;DHT22;2705;41.410;2.160;2023-03-08T13:44:19;22.80;99.90
5364;DHT22;2705;41.410;2.160;2023-03-08T13:46:50;22.80;99.90
5364;DHT22;2705;41.410;2.160;2023-03-08T13:49:23;22.90;99.90
5364;DHT22;2705;41.410;2.160;2023-03-08T13:51:54;22.80;99.90
5364;DHT22;2705;41.410;2.160;2023-03-08T13:54:27;22.70;99.90
5364;DHT22;2705;41.410;2.160;2023-03-08T13:56:58;22.80;99.90
5364;DHT22;2705;41.410;2.160;2023-03-08T13:59:29;22.60;99.90
5364;DHT22;2705;41.410;2.160;2023-03-08T14:01:58;22.70;99.90
5364;DHT22;2705;41.410;2.160;2023-03-08T14:04:29;22.80;99.90
5364;DHT22;2705;41.410;2.160;2023-03-08T14:06:59;22.80;99.90
5364;DHT22;2705;41.410;2.160;2023-03-08T14:09:30;22.80;99.90
5364;DHT22;2705;41.410;2.160;2023-03-08T14:12:01;22.80;99.90
5364;DHT22;2705;41.410;2.160;2023-03-08T14:14:34;22.70;99.90
5364;DHT22;2705;41.410;2.160;2023-03-08T14:17:04;22.70;99.90
5364;DHT22;2705;41.410;2.160;2023-03-08T14:19:37;22.80;99.90
5364;DHT22;2705;41.410;2.160;2023-03-08T14:22:11;22.80;99.90
5364;DHT22;2705;41.410;2.160;2023-03-08T14:24:49;22.80;99.90
5364;DHT22;2705;41.410;2.160;2023-03-08T14:27:36;22.70;99.90
5364;DHT22;2705;41.410;2.160;2023-03-08T14:30:12;22.50;99.90
5364;DHT22;2705;41.410;2.160;2023-03-08T14:33:02;22.50;99.90
5364;DHT22;2705;41.410;2.160;2023-03-08T14:35:35;22.50;99.90
5364;DHT22;2705;41.410;2.160;2023-03-08T14:38:12;22.40;99.90
5364;DHT22;2705;41.410;2.160;2023-03-08T14:40:47;22.40;99.90
5364;DHT22;2705;41.410;2.160;2023-03-08T14:43:18;22.40;99.90
5364;DHT22;2705;41.410;2.160;2023-03-08T14:45:53;22.30;99.90
5364;DHT22;2705;41.410;2.160;2023-03-08T14:48:27;22.30;99.90
5364;DHT22;2705;41.410;2.160;2023-03-08T14:50:58;22.20;99.90
5364;DHT22;2705;41.410;2.160;2023-03-08T14:53:30;22.20;99.90
5364;DHT22;2705;41.410;2.160;2023-03-08T14:56:05;22.20;99.90
5364;DHT22;2705;41.410;2.160;2023-03-08T14:58:37;22.20;99.90
5364;DHT22;2705;41.410;2.160;2023-03-08T15:01:10;22.30;99.90
5364;DHT22;2705;41.410;2.160;2023-03-08T15:04:14;22.50;99.90
5364;DHT22;2705;41.410;2.160;2023-03-08T15:06:45;22.70;99.90
5364;DHT22;2705;41.410;2.160;2023-03-08T15:09:16;22.90;99.90
5364;DHT22;2705;41.410;2.160;2023-03-08T15:11:49;23.10;99.90
5364;DHT22;2705;41.410;2.160;2023-03-08T15:14:19;22.90;99.70
5364;DHT22;2705;41.410;2.160;2023-03-08T15:16:48;22.90;99.90
5364;DHT22;2705;41.410;2.160;2023-03-08T15:19:20;23.10;99.80
5364;DHT22;2705;41.410;2.160;2023-03-08T15:21:49;23.20;99.80
5364;DHT22;2705;41.410;2.160;2023-03-08T15:24:19;23.00;99.90
5364;DHT22;2705;41.410;2.160;2023-03-08T15:26:49;22.90;99.40
5364;DHT22;2705;41.410;2.160;2023-03-08T15:29:24;22.60;99.40
5364;DHT22;2705;41.410;2.160;2023-03-08T15:31:55;22.60;99.40
5364;DHT22;2705;41.410;2.160;2023-03-08T15:34:24;22.50;99.80
5364;DHT22;2705;41.410;2.160;2023-03-08T15:36:55;22.40;99.70
5364;DHT22;2705;41.410;2.160;2023-03-08T15:39:24;22.10;99.50
5364;DHT22;2705;41.410;2.160;2023-03-08T15:41:54;22.10;99.90
5364;DHT22;2705;41.410;2.160;2023-03-08T15:44:24;22.00;99.90
5364;DHT22;2705;41.410;2.160;2023-03-08T15:46:53;21.80;99.90
5364;DHT22;2705;41.410;2.160;2023-03-08T15:49:22;22.00;99.80
5364;DHT22;2705;41.410;2.160;2023-03-08T15:51:51;22.10;99.90
5364;DHT22;2705;41.410;2.160;2023-03-08T15:54:20;22.30;99.90
5364;DHT22;2705;41.410;2.160;2023-03-08T15:56:50;22.30;99.50
5364;DHT22;2705;41.410;2.160;2023-03-08T15:59:21;22.50;99.90
5364;DHT22;2705;41.410;2.160;2023-03-08T16:01:50;22.60;99.60
5364;DHT22;2705;41.410;2.160;2023-03-08T16:04:20;22.70;99.70
5364;DHT22;2705;41.410;2.160;2023-03-08T16:06:49;22.80;99.70
5364;DHT22;2705;41.410;2.160;2023-03-08T16:09:18;23.00;99.90
5364;DHT22;2705;41.410;2.160;2023-03-08T16:11:49;22.90;99.90
5364;DHT22;2705;41.410;2.160;2023-03-08T16:14:18;22.50;99.90
5364;DHT22;2705;41.410;2.160;2023-03-08T16:16:48;22.10;99.90
5364;DHT22;2705;41.410;2.160;2023-03-08T16:19:18;22.00;99.90
5364;DHT22;2705;41.410;2.160;2023-03-08T16:21:49;21.80;99.90
5364;DHT22;2705;41.410;2.160;2023-03-08T16:24:18;21.70;99.90
5364;DHT22;2705;41.410;2.160;2023-03-08T16:26:47;21.60;99.90
5364;DHT22;2705;41.410;2.160;2023-03-08T16:29:16;21.60;99.90
5364;DHT22;2705;41.410;2.160;2023-03-08T16:31:45;21.50;99.90
5364;DHT22;2705;41.410;2.160;2023-03-08T16:34:17;21.40;99.90
5364;DHT22;2705;41.410;2.160;2023-03-08T16:36:46;21.40;99.90
5364;DHT22;2705;41.410;2.160;2023-03-08T16:39:15;21.30;99.90
5364;DHT22;2705;41.410;2.160;2023-03-08T16:41:44;21.20;99.90
5364;DHT22;2705;41.410;2.160;2023-03-08T16:44:18;21.20;99.90